createdAt,value
2023-02-22T00:02:10.816Z,73.95
2023-02-22T00:04:41.791Z,77.13
2023-02-22T00:07:09.601Z,75.93
2023-02-22T00:09:37.409Z,74.13
2023-02-22T00:12:05.296Z,75.00
2023-02-22T00:14:33.638Z,77.40
2023-02-22T00:17:02.470Z,73.53
2023-02-22T00:19:31.123Z,79.13
2023-02-22T00:22:00.133Z,77.95
2023-02-22T00:24:29.490Z,75.38
2023-02-22T00:26:57.514Z,74.85
2023-02-22T00:29:25.855Z,73.43
2023-02-22T00:31:54.214Z,76.88
2023-02-22T00:34:24.197Z,75.28
2023-02-22T00:36:52.144Z,74.70
2023-02-22T00:39:20.240Z,79.15
2023-02-22T00:41:48.127Z,76.15
2023-02-22T00:44:16.079Z,76.85
2023-02-22T00:46:43.917Z,75.32
2023-02-22T00:49:11.701Z,75.10
2023-02-22T00:51:39.692Z,74.90
2023-02-22T00:54:08.080Z,73.53
2023-02-22T00:56:35.974Z,73.60
2023-02-22T00:59:04.618Z,78.03
2023-02-22T01:01:32.442Z,73.90
2023-02-22T01:04:00.329Z,79.07
2023-02-22T01:06:29.410Z,77.70
2023-02-22T01:08:59.489Z,76.05
2023-02-22T01:11:27.403Z,78.20
2023-02-22T01:13:55.479Z,74.75
2023-02-22T01:16:23.439Z,78.18
2023-02-22T01:18:51.491Z,79.13
2023-02-22T01:21:19.419Z,81.95
2023-02-22T01:23:47.385Z,82.05
2023-02-22T01:26:15.415Z,77.43
2023-02-22T01:28:43.307Z,78.05
2023-02-22T01:31:11.334Z,77.22
2023-02-22T01:33:39.512Z,80.60
2023-02-22T01:36:11.449Z,77.85
2023-02-22T01:38:39.696Z,80.10
2023-02-22T01:41:07.576Z,80.35
2023-02-22T01:43:37.995Z,77.35
2023-02-22T01:46:08.412Z,78.40
2023-02-22T01:48:37.556Z,77.47
2023-02-22T01:51:17.049Z,80.82
2023-02-22T01:53:57.144Z,81.85
2023-02-22T01:56:26.290Z,81.38
2023-02-22T01:58:56.785Z,78.10
2023-02-22T02:01:25.951Z,81.60
2023-02-22T02:03:58.276Z,81.10
2023-02-22T02:06:27.348Z,79.97
2023-02-22T02:09:15.376Z,80.88
2023-02-22T02:11:43.357Z,79.13
2023-02-22T02:14:11.930Z,77.60
2023-02-22T02:16:50.375Z,82.28
2023-02-22T02:19:44.632Z,80.35
2023-02-22T02:22:14.004Z,77.75
2023-02-22T02:24:57.523Z,78.68
2023-02-22T02:27:27.494Z,79.03
2023-02-22T02:29:55.300Z,79.30
2023-02-22T02:32:41.683Z,80.32
2023-02-22T02:35:21.573Z,82.40
2023-02-22T02:37:54.186Z,79.80
2023-02-22T02:40:47.341Z,79.88
2023-02-22T02:43:18.670Z,79.53
2023-02-22T02:45:50.413Z,77.93
2023-02-22T02:48:19.736Z,79.03
2023-02-22T02:50:50.470Z,81.28
2023-02-22T02:53:20.928Z,80.57
2023-02-22T02:55:48.833Z,78.55
2023-02-22T02:58:21.144Z,81.95
2023-02-22T03:00:50.947Z,81.60
2023-02-22T03:03:37.584Z,80.90
2023-02-22T03:06:15.005Z,78.28
2023-02-22T03:08:45.804Z,77.90
2023-02-22T03:11:21.345Z,81.25
2023-02-22T03:13:52.281Z,82.15
2023-02-22T03:16:24.741Z,79.68
2023-02-22T03:19:11.204Z,80.07
2023-02-22T03:21:56.325Z,80.47
2023-02-22T03:24:27.159Z,75.93
2023-02-22T03:27:16.326Z,78.60
2023-02-22T03:29:50.457Z,77.88
2023-02-22T03:32:22.790Z,78.90
2023-02-22T03:34:56.726Z,82.93
2023-02-22T03:37:30.084Z,78.28
2023-02-22T03:40:00.462Z,78.40
2023-02-22T03:42:34.256Z,77.37
2023-02-22T03:47:46.255Z,77.93
2023-02-22T03:50:26.268Z,76.53
2023-02-22T03:52:54.311Z,81.88
2023-02-22T03:55:28.829Z,80.70
2023-02-22T03:57:58.423Z,82.20
2023-02-22T04:00:30.086Z,77.22
2023-02-22T04:02:58.513Z,78.18
2023-02-22T04:05:26.420Z,81.22
2023-02-22T04:07:55.343Z,79.97
2023-02-22T04:10:23.781Z,77.47
2023-02-22T04:12:51.877Z,80.53
2023-02-22T04:15:21.794Z,80.57
2023-02-22T04:17:52.342Z,84.18
2023-02-22T04:20:20.828Z,80.40
2023-02-22T04:22:55.980Z,78.82
2023-02-22T04:25:24.240Z,81.53
2023-02-22T04:27:53.181Z,80.80
2023-02-22T04:30:32.542Z,79.70
2023-02-22T04:33:01.224Z,80.75
2023-02-22T04:35:29.148Z,81.80
2023-02-22T04:37:58.201Z,79.75
2023-02-22T04:40:26.139Z,82.45
2023-02-22T04:42:54.390Z,80.95
2023-02-22T04:45:22.260Z,81.80
2023-02-22T04:47:50.136Z,84.15
2023-02-22T04:50:19.132Z,80.85
2023-02-22T04:52:47.515Z,85.55
2023-02-22T04:55:16.618Z,80.63
2023-02-22T04:57:44.466Z,84.32
2023-02-22T05:00:16.979Z,80.60
2023-02-22T05:02:45.396Z,84.45
2023-02-22T05:05:14.840Z,80.88
2023-02-22T05:07:42.939Z,83.70
2023-02-22T05:10:11.960Z,82.25
2023-02-22T05:12:39.862Z,78.30
2023-02-22T05:15:08.556Z,81.57
2023-02-22T05:17:36.839Z,83.38
2023-02-22T05:20:05.309Z,83.80
2023-02-22T05:22:33.128Z,83.35
2023-02-22T05:25:00.937Z,83.80
2023-02-22T05:27:28.752Z,82.32
2023-02-22T05:29:56.536Z,83.47
2023-02-22T05:32:24.398Z,82.97
2023-02-22T05:34:52.259Z,82.65
2023-02-22T05:37:20.100Z,80.90
2023-02-22T05:39:48.037Z,83.00
2023-02-22T05:42:15.863Z,84.30
2023-02-22T05:44:44.083Z,84.47
2023-02-22T05:47:11.875Z,78.55
2023-02-22T05:49:39.730Z,87.60
2023-02-22T05:52:07.807Z,84.07
2023-02-22T05:54:35.696Z,80.03
2023-02-22T05:57:04.536Z,77.47
2023-02-22T05:59:32.323Z,80.28
2023-02-22T06:02:00.189Z,80.50
2023-02-22T06:04:28.152Z,81.05
2023-02-22T06:06:55.993Z,81.82
2023-02-22T06:09:23.779Z,81.95
2023-02-22T06:11:54.380Z,81.50
2023-02-22T06:14:22.282Z,81.70
2023-02-22T06:16:56.973Z,82.30
2023-02-22T06:19:24.918Z,80.80
2023-02-22T06:21:57.017Z,82.40
2023-02-22T06:24:24.887Z,82.68
2023-02-22T06:27:02.543Z,84.60
2023-02-22T06:29:30.479Z,79.53
2023-02-22T06:31:58.329Z,79.30
2023-02-22T06:34:26.204Z,80.32
2023-02-22T06:36:53.989Z,78.85
2023-02-22T06:39:22.098Z,82.78
2023-02-22T06:41:51.481Z,87.25
2023-02-22T06:44:19.362Z,83.95
2023-02-22T06:46:53.970Z,84.13
2023-02-22T06:49:21.773Z,83.30
2023-02-22T06:51:49.656Z,86.40
2023-02-22T06:54:17.458Z,84.70
2023-02-22T06:56:45.287Z,87.53
2023-02-22T06:59:13.147Z,87.53
2023-02-22T07:01:41.868Z,85.93
2023-02-22T07:04:09.898Z,86.25
2023-02-22T07:06:37.999Z,88.82
2023-02-22T07:09:05.997Z,92.30
2023-02-22T07:11:33.788Z,91.50
2023-02-22T07:14:01.573Z,89.20
2023-02-22T07:16:29.436Z,86.05
2023-02-22T07:18:57.272Z,89.15
2023-02-22T07:21:25.223Z,94.22
2023-02-22T07:23:56.645Z,86.50
2023-02-22T07:26:24.692Z,88.00
2023-02-22T07:28:52.526Z,89.70
2023-02-22T07:31:20.331Z,89.43
2023-02-22T07:33:48.725Z,88.28
2023-02-22T07:36:18.013Z,86.68
2023-02-22T07:38:46.283Z,88.32
2023-02-22T07:41:14.420Z,88.70
2023-02-22T07:43:42.351Z,90.03
2023-02-22T07:46:10.167Z,91.18
2023-02-22T07:48:39.609Z,91.40
2023-02-22T07:51:07.475Z,88.97
2023-02-22T07:53:35.291Z,87.80
2023-02-22T07:56:05.363Z,91.70
2023-02-22T07:58:33.674Z,91.43
2023-02-22T08:01:04.696Z,91.68
2023-02-22T08:03:38.065Z,91.28
2023-02-22T08:06:07.134Z,90.30
2023-02-22T08:08:35.053Z,92.05
2023-02-22T08:11:02.855Z,95.22
2023-02-22T08:13:30.816Z,90.07
2023-02-22T08:15:58.689Z,92.25
2023-02-22T08:18:26.648Z,87.97
2023-02-22T08:20:55.054Z,90.72
2023-02-22T08:23:25.262Z,89.55
2023-02-22T08:25:53.645Z,90.75
2023-02-22T08:28:23.464Z,91.68
2023-02-22T08:30:52.043Z,93.72
2023-02-22T08:33:20.339Z,90.47
2023-02-22T08:35:51.972Z,89.47
2023-02-22T08:38:24.770Z,90.57
2023-02-22T08:40:52.987Z,94.25
2023-02-22T08:43:21.285Z,91.75
2023-02-22T08:45:49.704Z,91.35
2023-02-22T08:48:17.987Z,93.35
2023-02-22T08:50:46.625Z,88.90
2023-02-22T08:53:15.561Z,91.53
2023-02-22T08:55:43.588Z,92.45
2023-02-22T08:58:12.187Z,91.53
2023-02-22T09:00:41.015Z,91.03
2023-02-22T09:03:10.915Z,89.13
2023-02-22T09:05:38.791Z,89.05
2023-02-22T09:08:07.259Z,89.85
2023-02-22T09:10:35.460Z,90.75
2023-02-22T09:13:04.193Z,91.20
2023-02-22T09:15:32.716Z,85.18
2023-02-22T09:18:01.608Z,93.28
2023-02-22T09:20:29.674Z,87.30
2023-02-22T09:22:57.835Z,91.05
2023-02-22T09:25:27.200Z,88.97
2023-02-22T09:27:55.333Z,90.90
2023-02-22T09:30:26.225Z,84.20
2023-02-22T09:32:59.087Z,82.63
2023-02-22T09:35:27.795Z,83.10
2023-02-22T09:37:56.394Z,80.65
2023-02-22T09:40:29.937Z,81.22
2023-02-22T09:43:18.933Z,80.28
2023-02-22T09:46:07.073Z,74.57
2023-02-22T09:48:37.122Z,77.35
2023-02-22T09:51:18.400Z,83.88
2023-02-22T09:53:48.469Z,76.28
2023-02-22T09:56:18.573Z,80.13
2023-02-22T09:58:48.082Z,76.78
2023-02-22T10:01:30.430Z,68.03
2023-02-22T10:04:05.291Z,72.70
2023-02-22T10:06:34.533Z,75.90
2023-02-22T10:09:08.088Z,73.10
2023-02-22T10:11:50.593Z,68.63
2023-02-22T10:14:34.556Z,70.43
2023-02-22T10:17:22.414Z,73.80
2023-02-22T10:19:54.754Z,72.30
2023-02-22T10:22:26.000Z,72.75
2023-02-22T10:25:01.857Z,74.78
2023-02-22T10:27:34.296Z,74.50
2023-02-22T10:30:23.811Z,74.35
2023-02-22T10:32:58.783Z,68.57
2023-02-22T10:35:28.970Z,72.30
2023-02-22T10:38:00.463Z,66.82
2023-02-22T10:40:34.664Z,70.78
2023-02-22T10:43:06.461Z,67.82
2023-02-22T10:45:34.816Z,64.97
2023-02-22T10:48:08.546Z,66.53
2023-02-22T10:50:38.025Z,67.53
2023-02-22T10:53:05.842Z,64.30
2023-02-22T10:55:33.775Z,64.78
2023-02-22T10:58:07.013Z,65.60
2023-02-22T11:00:37.339Z,67.18
2023-02-22T11:03:16.492Z,65.28
2023-02-22T11:05:44.663Z,64.72
2023-02-22T11:08:21.728Z,63.42
2023-02-22T11:10:50.338Z,64.00
2023-02-22T11:13:25.998Z,66.57
2023-02-22T11:15:54.709Z,64.93
2023-02-22T11:18:25.130Z,67.35
2023-02-22T11:21:03.555Z,63.88
2023-02-22T11:23:31.671Z,65.00
2023-02-22T11:26:03.890Z,64.05
2023-02-22T11:28:32.996Z,63.10
2023-02-22T11:31:15.943Z,63.45
2023-02-22T11:33:52.628Z,64.93
2023-02-22T11:36:37.462Z,63.08
2023-02-22T11:39:06.648Z,65.13
2023-02-22T11:41:34.995Z,66.80
2023-02-22T11:44:15.026Z,66.13
2023-02-22T11:46:43.357Z,67.68
2023-02-22T11:49:13.122Z,66.55
2023-02-22T11:51:58.562Z,64.20
2023-02-22T11:54:35.357Z,66.85
2023-02-22T11:57:07.220Z,62.00
2023-02-22T11:59:58.860Z,64.40
2023-02-22T12:02:26.783Z,63.35
2023-02-22T12:05:08.064Z,65.20
2023-02-22T12:07:35.853Z,65.20
2023-02-22T12:10:09.835Z,63.13
2023-02-22T12:12:44.628Z,64.57
2023-02-22T12:15:31.569Z,62.83
2023-02-22T12:18:02.153Z,66.43
2023-02-22T12:20:32.706Z,65.60
2023-02-22T12:23:03.542Z,68.43
2023-02-22T12:25:39.424Z,67.80
2023-02-22T12:28:25.409Z,68.70
2023-02-22T12:30:57.159Z,67.00
2023-02-22T12:33:28.382Z,66.05
2023-02-22T12:35:57.615Z,67.70
2023-02-22T12:38:32.999Z,68.18
2023-02-22T12:41:18.360Z,65.80
2023-02-22T12:43:48.464Z,67.90
2023-02-22T12:46:18.964Z,67.05
2023-02-22T12:48:49.522Z,68.70
2023-02-22T12:51:24.493Z,66.10
2023-02-22T12:54:11.985Z,68.80
2023-02-22T12:56:45.931Z,69.30
2023-02-22T12:59:20.103Z,67.35
2023-02-22T13:01:52.258Z,67.18
2023-02-22T13:04:21.539Z,67.47
2023-02-22T13:07:09.788Z,65.43
2023-02-22T13:09:54.528Z,70.93
2023-02-22T13:12:22.353Z,69.63
2023-02-22T13:14:59.281Z,68.63
2023-02-22T13:17:50.102Z,68.68
2023-02-22T13:20:22.673Z,69.03
2023-02-22T13:22:53.046Z,69.60
2023-02-22T13:25:31.596Z,65.45
2023-02-22T13:28:17.694Z,66.30
2023-02-22T13:30:52.032Z,69.57
2023-02-22T13:33:23.362Z,68.57
2023-02-22T13:36:09.985Z,67.75
2023-02-22T13:38:37.810Z,69.60
2023-02-22T13:41:05.648Z,66.30
2023-02-22T13:43:52.037Z,70.70
2023-02-22T13:46:29.880Z,68.97
2023-02-22T13:48:57.707Z,66.88
2023-02-22T13:51:34.439Z,65.25
2023-02-22T13:54:05.292Z,66.43
2023-02-22T13:56:33.149Z,66.72
2023-02-22T13:59:02.455Z,67.32
2023-02-22T14:01:46.607Z,67.28
2023-02-22T14:04:20.610Z,65.50
2023-02-22T14:06:48.437Z,66.65
2023-02-22T14:09:19.951Z,67.40
2023-02-22T14:11:48.518Z,64.35
2023-02-22T14:14:17.911Z,69.50
2023-02-22T14:16:46.164Z,65.60
2023-02-22T14:19:15.436Z,70.68
2023-02-22T14:21:56.679Z,70.35
2023-02-22T14:24:24.572Z,65.68
2023-02-22T14:26:59.959Z,65.07
2023-02-22T14:29:28.229Z,65.05
2023-02-22T14:31:56.099Z,62.17
2023-02-22T14:34:40.868Z,65.75
2023-02-22T14:37:20.404Z,63.97
2023-02-22T14:40:12.950Z,64.05
2023-02-22T14:42:45.045Z,64.10
2023-02-22T14:45:17.231Z,65.35
2023-02-22T14:48:03.477Z,64.38
2023-02-22T14:50:51.567Z,64.95
2023-02-22T14:53:19.401Z,66.05
2023-02-22T14:56:04.030Z,64.25
2023-02-22T14:58:42.587Z,64.80
2023-02-22T15:01:23.384Z,62.45
2023-02-22T15:04:07.323Z,64.50
2023-02-22T15:06:36.081Z,62.38
2023-02-22T15:09:29.187Z,62.22
2023-02-22T15:12:03.318Z,64.50
2023-02-22T15:14:33.145Z,65.20
2023-02-22T15:17:02.100Z,64.25
2023-02-22T15:19:31.993Z,62.55
2023-02-22T15:22:01.757Z,64.80
2023-02-22T15:24:30.950Z,60.70
2023-02-22T15:27:06.240Z,63.85
2023-02-22T15:29:39.006Z,65.53
2023-02-22T15:32:20.495Z,62.07
2023-02-22T15:34:48.384Z,63.85
2023-02-22T15:37:25.426Z,61.05
2023-02-22T15:39:59.478Z,61.10
2023-02-22T15:42:29.722Z,63.78
2023-02-22T15:44:58.172Z,63.97
2023-02-22T15:47:30.179Z,64.25
2023-02-22T15:50:16.636Z,62.40
2023-02-22T15:52:48.661Z,63.83
2023-02-22T15:55:17.832Z,64.15
2023-02-22T15:57:45.797Z,63.17
2023-02-22T16:00:24.694Z,62.60
2023-02-22T16:02:52.687Z,64.35
2023-02-22T16:05:20.572Z,65.18
2023-02-22T16:07:50.143Z,65.43
2023-02-22T16:10:23.962Z,64.60
2023-02-22T16:13:03.893Z,66.43
2023-02-22T16:15:35.039Z,60.90
2023-02-22T16:18:24.666Z,64.53
2023-02-22T16:20:59.444Z,63.38
2023-02-22T16:23:27.743Z,63.05
2023-02-22T16:26:02.466Z,64.43
2023-02-22T16:28:33.891Z,64.50
2023-02-22T16:31:03.032Z,64.90
2023-02-22T16:33:33.825Z,66.70
2023-02-22T16:36:08.162Z,62.03
2023-02-22T16:38:38.528Z,60.78
2023-02-22T16:41:07.545Z,61.22
2023-02-22T16:43:35.731Z,62.20
2023-02-22T16:46:06.875Z,64.80
2023-02-22T16:48:38.344Z,64.53
2023-02-22T16:51:26.136Z,63.17
2023-02-22T16:53:54.415Z,61.97
2023-02-22T16:56:32.152Z,63.53
2023-02-22T16:59:06.453Z,60.08
2023-02-22T17:04:04.693Z,62.72
2023-02-22T17:06:33.427Z,63.63
2023-02-22T17:09:04.155Z,65.55
2023-02-22T17:11:32.581Z,65.28
2023-02-22T17:14:00.355Z,67.15
2023-02-22T17:16:33.338Z,67.15
2023-02-22T17:19:01.181Z,68.25
2023-02-22T17:21:28.991Z,70.78
2023-02-22T17:23:56.822Z,67.45
2023-02-22T17:26:28.340Z,67.00
2023-02-22T17:28:56.186Z,63.97
2023-02-22T17:31:29.597Z,66.10
2023-02-22T17:34:06.104Z,67.30
2023-02-22T17:36:37.246Z,69.63
2023-02-22T17:39:06.090Z,67.32
2023-02-22T17:41:34.087Z,65.95
2023-02-22T17:44:01.859Z,69.07
2023-02-22T17:46:29.793Z,66.65
2023-02-22T17:48:57.690Z,70.63
2023-02-22T17:51:26.787Z,68.10
2023-02-22T17:53:54.613Z,69.47
2023-02-22T17:56:23.892Z,68.28
2023-02-22T17:58:53.697Z,68.25
2023-02-22T18:01:28.724Z,68.07
2023-02-22T18:03:57.818Z,68.60
2023-02-22T18:06:27.267Z,67.82
2023-02-22T18:08:56.892Z,67.82
2023-02-22T18:11:26.497Z,65.93
2023-02-22T18:13:55.455Z,67.20
2023-02-22T18:16:25.643Z,67.03
2023-02-22T18:18:53.934Z,68.85
2023-02-22T18:21:22.001Z,69.30
2023-02-22T18:23:49.814Z,68.90
2023-02-22T18:26:18.744Z,67.53
2023-02-22T18:28:48.721Z,70.88
2023-02-22T18:31:18.062Z,67.97
2023-02-22T18:33:48.247Z,68.57
2023-02-22T18:36:16.414Z,71.03
2023-02-22T18:38:44.745Z,67.53
2023-02-22T18:41:13.726Z,72.75
2023-02-22T18:43:41.713Z,67.68
2023-02-22T18:46:09.641Z,66.63
2023-02-22T18:48:37.611Z,71.20
2023-02-22T18:51:06.752Z,70.25
2023-02-22T18:53:35.042Z,67.68
2023-02-22T18:56:07.326Z,66.30
2023-02-22T18:58:35.553Z,69.50
2023-02-22T19:01:04.301Z,70.25
2023-02-22T19:03:32.824Z,71.18
2023-02-22T19:06:03.860Z,73.28
2023-02-22T19:08:32.559Z,72.32
2023-02-22T19:11:23.472Z,73.05
2023-02-22T19:13:52.433Z,71.00
2023-02-22T19:16:21.595Z,70.55
2023-02-22T19:18:52.300Z,71.03
2023-02-22T19:21:20.868Z,73.80
2023-02-22T19:23:49.299Z,70.78
2023-02-22T19:26:19.150Z,70.10
2023-02-22T19:28:47.768Z,69.97
2023-02-22T19:31:15.899Z,67.53
2023-02-22T19:33:44.508Z,72.32
2023-02-22T19:36:13.184Z,70.38
2023-02-22T19:38:41.640Z,70.63
2023-02-22T19:41:24.763Z,69.15
2023-02-22T19:43:53.545Z,68.05
2023-02-22T19:46:21.507Z,71.70
2023-02-22T19:48:51.028Z,72.35
2023-02-22T19:51:20.523Z,71.93
2023-02-22T19:53:48.522Z,70.07
2023-02-22T19:56:17.520Z,72.50
2023-02-22T19:58:46.723Z,73.65
2023-02-22T20:01:14.595Z,69.15
2023-02-22T20:03:42.814Z,73.65
2023-02-22T20:06:11.309Z,75.75
2023-02-22T20:08:42.334Z,71.55
2023-02-22T20:11:11.037Z,72.95
2023-02-22T20:13:39.697Z,71.07
2023-02-22T20:16:08.144Z,71.28
2023-02-22T20:18:37.208Z,71.43
2023-02-22T20:21:09.766Z,73.53
2023-02-22T20:23:40.704Z,75.03
2023-02-22T20:26:15.126Z,71.32
2023-02-22T20:28:44.462Z,72.43
2023-02-22T20:31:15.737Z,74.25
2023-02-22T20:33:45.761Z,74.00
2023-02-22T20:36:14.964Z,73.85
2023-02-22T20:38:44.027Z,75.13
2023-02-22T20:41:15.274Z,73.50
2023-02-22T20:43:43.596Z,73.72
2023-02-22T20:46:11.483Z,72.30
2023-02-22T20:48:39.331Z,77.05
2023-02-22T20:51:12.413Z,74.95
2023-02-22T20:53:43.199Z,77.65
2023-02-22T20:56:21.385Z,77.35
2023-02-22T20:58:49.375Z,73.68
2023-02-22T21:01:19.333Z,72.45
2023-02-22T21:03:48.972Z,76.47
2023-02-22T21:06:18.567Z,74.35
2023-02-22T21:08:50.185Z,76.25
2023-02-22T21:11:19.171Z,72.88
2023-02-22T21:13:47.289Z,73.90
2023-02-22T21:16:23.341Z,76.63
2023-02-22T21:18:52.284Z,73.05
2023-02-22T21:21:20.540Z,74.93
2023-02-22T21:23:50.883Z,73.38
2023-02-22T21:26:20.050Z,69.88
2023-02-22T21:28:51.325Z,77.88
2023-02-22T21:31:24.380Z,77.72
2023-02-22T21:33:53.642Z,77.78
2023-02-22T21:36:25.283Z,76.22
2023-02-22T21:38:58.403Z,76.43
2023-02-22T21:41:28.931Z,73.13
2023-02-22T21:43:57.713Z,77.80
2023-02-22T21:46:25.976Z,73.82
2023-02-22T21:48:54.304Z,76.18
2023-02-22T21:51:25.310Z,75.47
2023-02-22T21:53:54.429Z,81.18
2023-02-22T21:56:24.380Z,71.95
2023-02-22T21:59:02.992Z,72.72
2023-02-22T22:01:32.054Z,78.20
2023-02-22T22:04:00.399Z,75.75
2023-02-22T22:06:29.232Z,73.07
2023-02-22T22:08:57.904Z,74.93
2023-02-22T22:11:25.771Z,72.65
2023-02-22T22:13:57.647Z,74.93
2023-02-22T22:16:27.654Z,76.35
2023-02-22T22:18:57.041Z,77.20
2023-02-22T22:21:25.265Z,73.05
2023-02-22T22:23:57.335Z,74.35
2023-02-22T22:26:26.228Z,77.25
2023-02-22T22:28:56.025Z,75.03
2023-02-22T22:31:26.247Z,75.38
2023-02-22T22:33:55.296Z,75.97
2023-02-22T22:36:24.072Z,76.90
2023-02-22T22:38:52.857Z,72.03
2023-02-22T22:41:22.052Z,80.03
2023-02-22T22:43:52.444Z,77.90
2023-02-22T22:46:20.235Z,72.60
2023-02-22T22:48:48.115Z,73.85
2023-02-22T22:51:18.500Z,78.07
2023-02-22T22:53:47.564Z,74.78
2023-02-22T22:56:26.906Z,75.80
2023-02-22T22:58:55.732Z,72.68
2023-02-22T23:01:28.057Z,77.95
2023-02-22T23:04:02.141Z,74.13
2023-02-22T23:06:35.098Z,72.82
2023-02-22T23:09:11.679Z,76.75
2023-02-22T23:11:44.434Z,71.63
2023-02-22T23:14:20.000Z,78.25
2023-02-22T23:16:51.643Z,78.28
2023-02-22T23:19:20.037Z,75.93
2023-02-22T23:21:48.734Z,77.63
2023-02-22T23:24:18.685Z,81.55
2023-02-22T23:26:49.801Z,78.28
2023-02-22T23:29:18.592Z,80.07
2023-02-22T23:31:48.316Z,77.72
2023-02-22T23:34:21.218Z,77.60
2023-02-22T23:36:49.878Z,77.88
2023-02-22T23:39:22.184Z,77.43
2023-02-22T23:41:50.923Z,80.57
2023-02-22T23:44:19.202Z,82.47
2023-02-22T23:46:55.418Z,77.82
2023-02-22T23:49:27.009Z,76.40
2023-02-22T23:51:55.632Z,78.03
2023-02-22T23:54:26.639Z,79.50
2023-02-22T23:56:56.624Z,78.22
2023-02-22T23:59:28.093Z,78.55
